KMFE/MFE METAR and TAF weather

Enter ICAO airport designator
Station Type Date Time Source
KMFE METAR 2021/09/20 04:53 UTC NOAA

KMFE 200453Z 14008KT 10SM CLR 27/24 A2990 RMK AO2 SLP123 T02670244


Station Type Date Time Source
KMFE Decoded METAR 2021/09/20 04:53 UTC NOAA

MCALLEN MILLER INTERNATIONAL AIRPORT , TX, United States (KMFE) 26-11N 98-15W 38M
Sep 20, 2021 - 12:53 AM EDT / 2021.09.20 0453 UTC
Wind: from the SE (140 degrees) at 9 MPH (8 KT):0
Visibility: 10 mile(s):0
Sky conditions: clear
Temperature: 80.1 F (26.7 C)
Dew Point: 75.9 F (24.4 C)
Relative Humidity: 87%
Pressure (altimeter): 29.9 in. Hg (1012 hPa)
ob: KMFE 200453Z 14008KT 10SM CLR 27/24 A2990 RMK AO2 SLP123 T02670244
cycle: 5

Station Type Date Time Source
KMFE TAF 2021/09/19 18:22 UTC NOAA

TAF KMFE 191720Z 1918/2018 VRB05KT P6SM FEW250
FM200000 12011KT P6SM SKC
FM200300 15008KT P6SM SKC
FM201700 16011G17KT P6SM SKC

Example: see airport list